createdAt,value
2023-05-03T00:01:57.274Z,13.04
2023-05-03T00:04:02.065Z,13.04
2023-05-03T00:06:12.499Z,12.97
2023-05-03T00:08:15.935Z,12.96
2023-05-03T00:10:19.463Z,12.95
2023-05-03T00:12:23.137Z,12.96
2023-05-03T00:14:26.452Z,12.92
2023-05-03T00:16:29.712Z,12.92
2023-05-03T00:18:32.951Z,12.91
2023-05-03T00:20:37.461Z,12.85
2023-05-03T00:22:40.526Z,12.76
2023-05-03T00:24:43.576Z,12.75
2023-05-03T00:26:46.607Z,12.76
2023-05-03T00:28:49.673Z,12.76
2023-05-03T00:30:52.933Z,12.73
2023-05-03T00:32:56.198Z,12.66
2023-05-03T00:34:59.471Z,12.62
2023-05-03T00:37:04.148Z,12.63
2023-05-03T00:39:07.210Z,12.63
2023-05-03T00:41:11.177Z,12.64
2023-05-03T00:43:14.429Z,12.60
2023-05-03T00:45:17.603Z,12.58
2023-05-03T00:47:22.359Z,12.56
2023-05-03T00:49:25.717Z,12.57
2023-05-03T00:51:28.867Z,12.57
2023-05-03T00:53:33.328Z,12.57
2023-05-03T00:55:37.405Z,12.57
2023-05-03T00:57:40.735Z,12.53
2023-05-03T00:59:43.946Z,12.47
2023-05-03T01:01:49.516Z,12.47
2023-05-03T01:03:52.808Z,12.42
2023-05-03T01:06:02.838Z,12.41
2023-05-03T01:08:10.978Z,12.35
2023-05-03T01:10:21.937Z,12.33
2023-05-03T01:12:31.937Z,12.34
2023-05-03T01:14:48.756Z,12.30
2023-05-03T01:16:55.495Z,12.26
2023-05-03T01:19:01.628Z,12.26
2023-05-03T01:21:06.506Z,12.26
2023-05-03T01:23:13.034Z,12.28
2023-05-03T01:25:17.527Z,12.26
2023-05-03T01:27:20.609Z,12.25
2023-05-03T01:29:23.644Z,12.24
2023-05-03T01:31:30.992Z,12.22
2023-05-03T01:33:38.238Z,12.19
2023-05-03T01:35:43.039Z,12.18
2023-05-03T01:37:46.166Z,12.10
2023-05-03T01:39:52.727Z,12.11
2023-05-03T01:41:58.061Z,12.06
2023-05-03T01:44:01.739Z,12.01
2023-05-03T01:46:04.890Z,11.98
2023-05-03T01:48:11.245Z,11.99
2023-05-03T01:50:14.357Z,12.00
2023-05-03T01:52:17.453Z,12.00
2023-05-03T01:54:20.767Z,12.01
2023-05-03T01:56:23.829Z,12.03
2023-05-03T01:58:28.317Z,12.03
2023-05-03T02:00:31.432Z,12.04
2023-05-03T02:02:34.585Z,12.04
2023-05-03T02:04:38.003Z,12.05
2023-05-03T02:06:41.488Z,12.03
2023-05-03T02:08:44.594Z,11.99
2023-05-03T02:10:47.589Z,12.00
2023-05-03T02:12:52.530Z,11.95
2023-05-03T02:14:57.316Z,11.92
2023-05-03T02:17:00.722Z,11.92
2023-05-03T02:19:04.119Z,11.88
2023-05-03T02:21:07.869Z,11.84
2023-05-03T02:23:10.958Z,11.82
2023-05-03T02:25:14.013Z,11.80
2023-05-03T02:27:17.239Z,11.80
2023-05-03T02:29:20.340Z,11.79
2023-05-03T02:31:24.890Z,11.75
2023-05-03T02:33:27.995Z,11.76
2023-05-03T02:35:31.092Z,11.79
2023-05-03T02:37:34.174Z,11.80
2023-05-03T02:39:40.744Z,11.80
2023-05-03T02:41:44.664Z,11.81
2023-05-03T02:43:48.942Z,11.82
2023-05-03T02:45:52.079Z,11.82
2023-05-03T02:47:58.057Z,11.81
2023-05-03T02:50:03.040Z,11.79
2023-05-03T02:52:09.839Z,11.75
2023-05-03T02:54:12.969Z,11.72
2023-05-03T02:56:16.081Z,11.67
2023-05-03T02:58:19.161Z,11.62
2023-05-03T03:00:22.802Z,11.60
2023-05-03T03:02:26.409Z,11.58
2023-05-03T03:04:31.125Z,11.56
2023-05-03T03:06:34.573Z,11.56
2023-05-03T03:08:37.976Z,11.52
2023-05-03T03:10:42.124Z,11.52
2023-05-03T03:12:47.834Z,11.49
2023-05-03T03:14:59.583Z,11.47
2023-05-03T03:17:03.789Z,11.41
2023-05-03T03:19:06.866Z,11.40
2023-05-03T03:21:11.229Z,11.34
2023-05-03T03:23:14.538Z,11.33
2023-05-03T03:25:18.326Z,11.33
2023-05-03T03:27:23.188Z,11.30
2023-05-03T03:29:27.657Z,11.28
2023-05-03T03:31:31.979Z,11.27
2023-05-03T03:33:35.345Z,11.21
2023-05-03T03:35:44.826Z,11.19
2023-05-03T03:37:50.139Z,11.16
2023-05-03T03:39:54.069Z,11.16
2023-05-03T03:41:57.878Z,11.12
2023-05-03T03:44:01.201Z,11.10
2023-05-03T03:46:04.294Z,11.10
2023-05-03T03:48:07.837Z,11.08
2023-05-03T03:50:11.753Z,11.07
2023-05-03T03:52:15.401Z,11.06
2023-05-03T03:54:19.882Z,11.03
2023-05-03T03:56:26.290Z,10.95
2023-05-03T03:58:31.262Z,10.90
2023-05-03T04:00:35.670Z,10.85
2023-05-03T04:02:46.782Z,10.79
2023-05-03T04:04:53.610Z,10.76
2023-05-03T04:06:56.767Z,10.69
2023-05-03T04:09:02.257Z,10.67
2023-05-03T04:11:12.942Z,10.64
2023-05-03T04:13:21.852Z,10.64
2023-05-03T04:15:27.674Z,10.66
2023-05-03T04:17:35.019Z,10.64
2023-05-03T04:19:41.413Z,10.67
2023-05-03T04:21:44.707Z,10.69
2023-05-03T04:23:47.970Z,10.72
2023-05-03T04:25:53.992Z,10.76
2023-05-03T04:28:00.496Z,10.76
2023-05-03T04:30:06.607Z,10.74
2023-05-03T04:32:11.245Z,10.77
2023-05-03T04:34:15.775Z,10.79
2023-05-03T04:36:25.887Z,10.82
2023-05-03T04:38:30.883Z,10.82
2023-05-03T04:40:37.554Z,10.83
2023-05-03T04:42:44.419Z,10.86
2023-05-03T04:44:49.037Z,10.89
2023-05-03T04:46:52.287Z,10.89
2023-05-03T04:48:55.485Z,10.81
2023-05-03T04:50:59.132Z,10.84
2023-05-03T04:53:02.451Z,10.86
2023-05-03T04:55:08.397Z,10.86
2023-05-03T04:57:12.562Z,10.93
2023-05-03T04:59:15.887Z,11.00
2023-05-03T05:01:26.351Z,11.03
2023-05-03T05:03:32.126Z,11.08
2023-05-03T05:05:38.757Z,11.13
2023-05-03T05:07:43.093Z,11.17
2023-05-03T05:09:48.109Z,11.22
2023-05-03T05:11:54.497Z,11.23
2023-05-03T05:13:59.822Z,11.28
2023-05-03T05:16:03.282Z,11.36
2023-05-03T05:18:09.304Z,11.39
2023-05-03T05:20:13.615Z,11.45
2023-05-03T05:22:21.299Z,11.57
2023-05-03T05:24:30.348Z,11.73
2023-05-03T05:26:33.732Z,11.89
2023-05-03T05:28:36.937Z,12.10
2023-05-03T05:30:40.727Z,12.33
2023-05-03T05:32:44.163Z,12.48
2023-05-03T05:34:53.127Z,12.66
2023-05-03T05:36:57.307Z,12.88
2023-05-03T05:39:01.074Z,13.05
2023-05-03T05:41:06.786Z,13.26
2023-05-03T05:43:11.071Z,13.41
2023-05-03T05:45:16.825Z,13.63
2023-05-03T05:47:20.035Z,13.82
2023-05-03T05:49:24.387Z,13.99
2023-05-03T05:51:30.576Z,14.17
2023-05-03T05:53:34.306Z,14.33
2023-05-03T05:55:38.911Z,14.49
2023-05-03T05:57:42.723Z,14.60
2023-05-03T05:59:47.001Z,14.73
2023-05-03T06:01:50.509Z,14.92
2023-05-03T06:03:56.512Z,15.02
2023-05-03T06:06:00.091Z,15.14
2023-05-03T06:08:04.575Z,15.14
2023-05-03T06:10:09.045Z,15.18
2023-05-03T06:12:16.104Z,15.25
2023-05-03T06:14:20.787Z,15.34
2023-05-03T06:16:24.519Z,15.47
2023-05-03T06:18:27.769Z,15.59
2023-05-03T06:20:30.806Z,15.74
2023-05-03T06:22:34.776Z,15.85
2023-05-03T06:24:39.229Z,15.98
2023-05-03T06:26:42.356Z,15.95
2023-05-03T06:28:47.236Z,16.18
2023-05-03T06:30:51.046Z,16.29
2023-05-03T06:32:54.264Z,16.45
2023-05-03T06:34:59.483Z,16.52
2023-05-03T06:37:02.799Z,16.70
2023-05-03T06:39:06.178Z,16.64
2023-05-03T06:41:10.589Z,16.79
2023-05-03T06:43:13.875Z,16.52
2023-05-03T06:45:29.209Z,16.58
2023-05-03T06:47:34.777Z,16.91
2023-05-03T06:49:38.197Z,17.24
2023-05-03T06:51:41.383Z,17.22
2023-05-03T06:53:46.184Z,17.11
2023-05-03T06:55:52.062Z,16.77
2023-05-03T06:57:56.915Z,16.91
2023-05-03T07:00:00.294Z,17.01
2023-05-03T07:02:03.632Z,17.30
2023-05-03T07:04:06.950Z,17.58
2023-05-03T07:06:10.179Z,17.79
2023-05-03T07:08:13.294Z,17.72
2023-05-03T07:10:16.354Z,17.46
2023-05-03T07:12:19.468Z,17.58
2023-05-03T07:14:24.290Z,17.61
2023-05-03T07:16:27.454Z,17.87
2023-05-03T07:18:31.489Z,18.20
2023-05-03T07:20:34.644Z,18.36
2023-05-03T07:22:37.736Z,18.12
2023-05-03T07:24:40.869Z,18.20
2023-05-03T07:26:44.731Z,18.52
2023-05-03T07:28:48.132Z,18.84
2023-05-03T07:30:52.530Z,18.98
2023-05-03T07:32:55.609Z,19.08
2023-05-03T07:34:58.754Z,18.94
2023-05-03T07:37:01.944Z,18.64
2023-05-03T07:39:05.212Z,18.78
2023-05-03T07:41:08.270Z,19.07
2023-05-03T07:43:11.456Z,19.22
2023-05-03T07:45:14.455Z,19.40
2023-05-03T07:47:18.945Z,19.25
2023-05-03T07:49:22.220Z,19.48
2023-05-03T07:51:25.877Z,19.59
2023-05-03T07:53:29.177Z,19.48
2023-05-03T07:55:33.012Z,19.61
2023-05-03T07:57:36.318Z,19.21
2023-05-03T07:59:39.786Z,19.12
2023-05-03T08:01:42.953Z,19.19
2023-05-03T08:03:50.579Z,19.23
2023-05-03T08:05:53.930Z,19.43
2023-05-03T08:07:56.917Z,19.58
2023-05-03T08:10:00.113Z,19.67
2023-05-03T08:12:03.538Z,19.61
2023-05-03T08:14:06.683Z,19.61
2023-05-03T08:16:09.810Z,19.39
2023-05-03T08:18:12.822Z,19.36
2023-05-03T08:20:17.461Z,19.44
2023-05-03T08:22:20.556Z,19.42
2023-05-03T08:24:24.521Z,19.19
2023-05-03T08:26:28.624Z,19.14
2023-05-03T08:28:31.692Z,19.15
2023-05-03T08:30:34.752Z,19.37
2023-05-03T08:32:37.977Z,19.79
2023-05-03T08:34:41.603Z,20.02
2023-05-03T08:36:46.061Z,19.92
2023-05-03T08:38:49.144Z,19.68
2023-05-03T08:40:53.106Z,19.68
2023-05-03T08:42:57.306Z,19.78
2023-05-03T08:45:00.548Z,19.98
2023-05-03T08:47:05.537Z,20.12
2023-05-03T08:49:09.115Z,19.94
2023-05-03T08:51:12.354Z,19.94
2023-05-03T08:53:17.005Z,19.85
2023-05-03T08:55:20.268Z,19.63
2023-05-03T08:57:25.266Z,19.66
2023-05-03T08:59:29.537Z,19.89
2023-05-03T09:01:32.719Z,20.08
2023-05-03T09:03:37.271Z,20.24
2023-05-03T09:05:40.584Z,20.50
2023-05-03T09:07:46.143Z,20.54
2023-05-03T09:09:50.685Z,20.39
2023-05-03T09:11:53.702Z,20.49
2023-05-03T09:14:09.855Z,20.69
2023-05-03T09:16:12.952Z,20.89
2023-05-03T09:18:17.604Z,21.09
2023-05-03T09:20:35.291Z,21.10
2023-05-03T09:22:38.586Z,20.58
2023-05-03T09:24:54.152Z,20.14
2023-05-03T09:26:58.582Z,19.93
2023-05-03T09:29:02.646Z,20.09
2023-05-03T09:31:07.811Z,20.22
2023-05-03T09:33:11.577Z,20.44
2023-05-03T09:35:15.256Z,20.62
2023-05-03T09:37:18.745Z,20.75
2023-05-03T09:39:22.028Z,20.97
2023-05-03T09:41:30.364Z,21.06
2023-05-03T09:43:33.582Z,21.02
2023-05-03T09:45:37.198Z,21.05
2023-05-03T09:47:51.166Z,21.17
2023-05-03T09:49:54.461Z,21.27
2023-05-03T09:51:57.852Z,21.38
2023-05-03T09:54:00.956Z,21.47
2023-05-03T09:56:05.216Z,21.62
2023-05-03T09:58:09.764Z,21.79
2023-05-03T10:00:16.799Z,21.77
2023-05-03T10:02:20.036Z,21.91
2023-05-03T10:04:26.181Z,21.59
2023-05-03T10:06:33.066Z,21.01
2023-05-03T10:08:41.241Z,20.63
2023-05-03T10:10:45.705Z,20.39
2023-05-03T10:12:49.563Z,20.26
2023-05-03T10:14:56.124Z,20.48
2023-05-03T10:17:01.811Z,20.65
2023-05-03T10:19:10.193Z,20.53
2023-05-03T10:21:17.970Z,20.30
2023-05-03T10:23:21.116Z,20.20
2023-05-03T10:25:24.377Z,20.16
2023-05-03T10:27:38.745Z,20.28
2023-05-03T10:29:49.746Z,20.21
2023-05-03T10:31:54.335Z,20.11
2023-05-03T10:33:57.440Z,19.98
2023-05-03T10:36:01.520Z,19.83
2023-05-03T10:38:15.187Z,19.86
2023-05-03T10:40:22.404Z,20.11
2023-05-03T10:42:26.780Z,20.03
2023-05-03T10:44:36.297Z,19.88
2023-05-03T10:46:39.494Z,19.63
2023-05-03T10:48:46.113Z,19.29
2023-05-03T10:50:50.145Z,19.00
2023-05-03T10:52:53.298Z,18.94
2023-05-03T10:54:56.366Z,19.14
2023-05-03T10:57:00.004Z,19.17
2023-05-03T10:59:03.070Z,19.04
2023-05-03T11:01:06.951Z,19.12
2023-05-03T11:03:35.062Z,19.52
2023-05-03T11:05:40.376Z,19.87
2023-05-03T11:07:43.414Z,19.94
2023-05-03T11:09:47.727Z,19.82
2023-05-03T11:11:50.849Z,19.64
2023-05-03T11:13:54.500Z,19.47
2023-05-03T11:15:57.893Z,19.45
2023-05-03T11:18:01.236Z,19.41
2023-05-03T11:20:05.054Z,19.56
2023-05-03T11:22:09.715Z,19.86
2023-05-03T11:24:12.743Z,20.03
2023-05-03T11:26:16.454Z,20.11
2023-05-03T11:28:19.690Z,20.11
2023-05-03T11:30:22.845Z,20.06
2023-05-03T11:32:28.023Z,20.15
2023-05-03T11:34:31.224Z,20.22
2023-05-03T11:36:34.343Z,20.10
2023-05-03T11:38:39.661Z,20.07
2023-05-03T11:40:42.784Z,20.11
2023-05-03T11:42:53.345Z,20.20
2023-05-03T11:44:56.738Z,20.30
2023-05-03T11:47:00.152Z,20.41
2023-05-03T11:49:04.113Z,20.45
2023-05-03T11:51:12.598Z,20.46
2023-05-03T11:53:16.657Z,20.58
2023-05-03T11:55:22.764Z,20.64
2023-05-03T11:57:26.553Z,20.76
2023-05-03T11:59:37.120Z,20.74
2023-05-03T12:01:40.209Z,20.79
2023-05-03T12:03:43.435Z,20.79
2023-05-03T12:05:48.380Z,20.71
2023-05-03T12:07:53.081Z,20.70
2023-05-03T12:10:10.721Z,20.68
2023-05-03T12:12:26.126Z,20.62
2023-05-03T12:14:30.381Z,20.74
2023-05-03T12:16:50.305Z,20.75
2023-05-03T12:18:57.462Z,20.63
2023-05-03T12:23:10.135Z,20.48
2023-05-03T12:25:15.581Z,20.33
2023-05-03T12:27:19.644Z,20.19
2023-05-03T12:29:24.816Z,20.22
2023-05-03T12:31:29.492Z,20.23
2023-05-03T12:33:33.769Z,20.11
2023-05-03T12:35:40.273Z,20.05
2023-05-03T12:37:44.297Z,19.95
2023-05-03T12:39:58.444Z,19.78
2023-05-03T12:42:13.787Z,19.64
2023-05-03T12:44:22.407Z,19.69
2023-05-03T12:46:34.478Z,19.66
2023-05-03T12:48:38.275Z,19.82
2023-05-03T12:50:45.301Z,19.98
2023-05-03T12:52:52.662Z,20.08
2023-05-03T12:54:56.302Z,20.17
2023-05-03T12:57:07.896Z,20.04
2023-05-03T12:59:31.783Z,20.04
2023-05-03T13:02:23.515Z,19.99
2023-05-03T13:04:36.554Z,20.00
2023-05-03T13:06:23.264Z,20.14
2023-05-03T13:08:33.566Z,20.32
2023-05-03T13:10:39.080Z,20.21
2023-05-03T13:12:42.867Z,20.25
2023-05-03T13:14:46.000Z,20.25
2023-05-03T13:16:51.403Z,20.26
2023-05-03T13:18:56.691Z,20.31
2023-05-03T13:20:59.924Z,20.29
2023-05-03T13:23:03.033Z,20.25
2023-05-03T13:25:07.243Z,20.18
2023-05-03T13:27:11.562Z,20.06
2023-05-03T13:29:14.742Z,20.10
2023-05-03T13:31:17.917Z,20.21
2023-05-03T13:33:22.747Z,20.30
2023-05-03T13:35:26.017Z,20.41
2023-05-03T13:37:29.107Z,20.52
2023-05-03T13:39:32.208Z,20.39
2023-05-03T13:41:36.748Z,20.25
2023-05-03T13:43:42.133Z,20.03
2023-05-03T13:48:13.950Z,19.93
2023-05-03T13:50:13.183Z,19.98
2023-05-03T13:52:16.267Z,20.06
2023-05-03T13:54:19.445Z,20.10
2023-05-03T13:56:22.460Z,20.05
2023-05-03T13:58:25.609Z,20.09
2023-05-03T14:00:30.338Z,20.31
2023-05-03T14:02:35.324Z,20.41
2023-05-03T14:04:38.839Z,20.46
2023-05-03T14:06:43.528Z,20.56
2023-05-03T14:08:46.673Z,20.57
2023-05-03T14:10:50.690Z,20.46
2023-05-03T14:12:53.930Z,20.32
2023-05-03T14:14:57.156Z,20.26
2023-05-03T14:17:00.258Z,20.17
2023-05-03T14:19:03.461Z,20.19
2023-05-03T14:21:06.626Z,20.13
2023-05-03T14:23:11.256Z,20.13
2023-05-03T14:25:14.396Z,20.19
2023-05-03T14:27:21.642Z,20.12
2023-05-03T14:29:24.761Z,20.12
2023-05-03T14:31:27.863Z,20.00
2023-05-03T14:33:30.974Z,20.07
2023-05-03T14:35:34.129Z,20.14
2023-05-03T14:37:37.767Z,20.22
2023-05-03T14:39:42.192Z,20.26
2023-05-03T14:41:45.360Z,20.24
2023-05-03T14:43:48.401Z,20.33
2023-05-03T14:45:51.551Z,20.35
2023-05-03T14:47:54.931Z,20.38
2023-05-03T14:49:58.136Z,20.40
2023-05-03T14:52:01.384Z,20.32
2023-05-03T14:54:04.460Z,20.13
2023-05-03T14:56:09.220Z,20.09
2023-05-03T14:58:12.951Z,20.06
2023-05-03T15:00:18.411Z,20.06
2023-05-03T15:02:22.807Z,20.04
2023-05-03T15:04:26.322Z,20.03
2023-05-03T15:06:32.465Z,20.14
2023-05-03T15:08:35.482Z,20.22
2023-05-03T15:10:39.686Z,20.25
2023-05-03T15:12:44.165Z,20.19
2023-05-03T15:14:47.283Z,19.95
2023-05-03T15:16:50.393Z,19.90
2023-05-03T15:18:53.510Z,19.81
2023-05-03T15:20:57.368Z,19.88
2023-05-03T15:23:00.494Z,19.87
2023-05-03T15:25:03.632Z,19.85
2023-05-03T15:27:06.665Z,19.81
2023-05-03T15:29:11.554Z,19.76
2023-05-03T15:31:15.073Z,19.76
2023-05-03T15:33:18.633Z,19.88
2023-05-03T15:35:21.712Z,19.88
2023-05-03T15:37:24.830Z,19.85
2023-05-03T15:39:28.026Z,19.80
2023-05-03T15:41:31.246Z,19.78
2023-05-03T15:43:35.023Z,19.71
2023-05-03T15:45:39.550Z,19.68
2023-05-03T15:47:43.224Z,19.63
2023-05-03T15:49:46.327Z,19.65
2023-05-03T15:51:49.743Z,19.72
2023-05-03T15:53:54.499Z,19.67
2023-05-03T15:55:58.243Z,19.65
2023-05-03T15:58:02.258Z,19.70
2023-05-03T16:00:13.379Z,19.68
2023-05-03T16:02:17.980Z,19.68
2023-05-03T16:04:21.148Z,19.67
2023-05-03T16:06:24.697Z,19.70
2023-05-03T16:08:27.771Z,19.72
2023-05-03T16:10:31.473Z,19.76
2023-05-03T16:12:35.316Z,19.73
2023-05-03T16:14:38.412Z,19.75
2023-05-03T16:16:41.890Z,19.76
2023-05-03T16:18:46.428Z,19.72
2023-05-03T16:20:49.536Z,19.68
2023-05-03T16:22:52.927Z,19.71
2023-05-03T16:24:56.165Z,19.72
2023-05-03T16:26:59.248Z,19.74
2023-05-03T16:29:02.242Z,19.74
2023-05-03T16:31:06.122Z,19.71
2023-05-03T16:33:09.351Z,19.74
2023-05-03T16:35:13.998Z,19.75
2023-05-03T16:37:16.958Z,19.73
2023-05-03T16:39:20.039Z,19.69
2023-05-03T16:41:24.297Z,19.65
2023-05-03T16:43:27.510Z,19.65
2023-05-03T16:45:30.686Z,19.57
2023-05-03T16:47:35.062Z,19.53
2023-05-03T16:49:38.157Z,19.50
2023-05-03T16:51:43.138Z,19.52
2023-05-03T16:53:46.311Z,19.49
2023-05-03T16:55:49.932Z,19.42
2023-05-03T16:57:53.040Z,19.35
2023-05-03T16:59:56.073Z,19.29
2023-05-03T17:01:59.769Z,19.28
2023-05-03T17:04:04.645Z,19.34
2023-05-03T17:06:08.491Z,19.29
2023-05-03T17:08:13.528Z,19.24
2023-05-03T17:10:16.622Z,19.24
2023-05-03T17:12:19.862Z,19.17
2023-05-03T17:14:22.920Z,19.16
2023-05-03T17:16:26.611Z,19.14
2023-05-03T17:18:29.782Z,19.05
2023-05-03T17:20:32.995Z,19.05
2023-05-03T17:22:36.238Z,18.98
2023-05-03T17:24:40.813Z,18.98
2023-05-03T17:26:43.954Z,18.95
2023-05-03T17:28:48.293Z,18.95
2023-05-03T17:30:51.411Z,18.94
2023-05-03T17:32:54.485Z,18.92
2023-05-03T17:34:58.202Z,18.89
2023-05-03T17:37:01.399Z,18.89
2023-05-03T17:39:05.159Z,18.86
2023-05-03T17:41:10.413Z,18.82
2023-05-03T17:43:13.799Z,18.81
2023-05-03T17:45:17.221Z,18.80
2023-05-03T17:47:20.902Z,18.81
2023-05-03T17:49:23.979Z,18.77
2023-05-03T17:51:27.074Z,18.72
2023-05-03T17:53:30.114Z,18.69
2023-05-03T17:55:36.131Z,18.66
2023-05-03T17:57:40.620Z,18.64
2023-05-03T17:59:43.976Z,18.59
2023-05-03T18:01:48.473Z,18.55
2023-05-03T18:03:51.810Z,18.54
2023-05-03T18:05:55.201Z,18.51
2023-05-03T18:07:58.357Z,18.49
2023-05-03T18:10:01.920Z,18.48
2023-05-03T18:12:05.678Z,18.41
2023-05-03T18:14:10.102Z,18.34
2023-05-03T18:16:13.265Z,18.27
2023-05-03T18:18:16.435Z,18.23
2023-05-03T18:20:19.950Z,18.21
2023-05-03T18:22:23.401Z,18.13
2023-05-03T18:24:26.597Z,18.09
2023-05-03T18:26:30.255Z,18.07
2023-05-03T18:28:33.346Z,17.99
2023-05-03T18:30:37.789Z,17.92
2023-05-03T18:32:41.132Z,17.82
2023-05-03T18:34:44.588Z,17.73
2023-05-03T18:36:47.804Z,17.63
2023-05-03T18:38:53.654Z,17.63
2023-05-03T18:40:57.089Z,17.59
2023-05-03T18:43:00.276Z,17.50
2023-05-03T18:45:04.507Z,17.43
2023-05-03T18:47:10.371Z,17.38
2023-05-03T18:49:13.609Z,17.41
2023-05-03T18:51:17.165Z,17.32
2023-05-03T18:53:20.537Z,17.34
2023-05-03T18:55:23.840Z,17.29
2023-05-03T18:57:27.391Z,17.28
2023-05-03T18:59:30.763Z,17.27
2023-05-03T19:01:34.051Z,17.10
2023-05-03T19:03:38.670Z,17.08
2023-05-03T19:05:42.058Z,17.05
2023-05-03T19:07:47.545Z,16.99
2023-05-03T19:09:54.337Z,16.95
2023-05-03T19:11:58.522Z,16.93
2023-05-03T19:14:01.883Z,16.86
2023-05-03T19:16:05.033Z,16.82
2023-05-03T19:18:08.229Z,16.81
2023-05-03T19:20:13.641Z,16.78
2023-05-03T19:22:16.807Z,16.72
2023-05-03T19:24:20.041Z,16.69
2023-05-03T19:26:23.126Z,16.70
2023-05-03T19:28:26.453Z,16.66
2023-05-03T19:30:29.625Z,16.62
2023-05-03T19:32:35.352Z,16.56
2023-05-03T19:34:38.498Z,16.53
2023-05-03T19:36:43.183Z,16.51
2023-05-03T19:38:46.373Z,16.49
2023-05-03T19:40:56.991Z,16.43
2023-05-03T19:43:00.185Z,16.36
2023-05-03T19:45:04.135Z,16.29
2023-05-03T19:47:08.748Z,16.22
2023-05-03T19:49:11.869Z,16.16
2023-05-03T19:51:15.228Z,16.10
2023-05-03T19:53:19.876Z,16.05
2023-05-03T19:55:23.056Z,16.03
2023-05-03T19:57:26.572Z,16.00
2023-05-03T19:59:29.933Z,15.99
2023-05-03T20:01:32.991Z,15.99
2023-05-03T20:03:36.331Z,15.94
2023-05-03T20:05:39.617Z,15.92
2023-05-03T20:07:42.928Z,15.85
2023-05-03T20:09:47.644Z,15.81
2023-05-03T20:11:51.000Z,15.81
2023-05-03T20:13:54.400Z,15.81
2023-05-03T20:15:57.546Z,15.80
2023-05-03T20:18:00.798Z,15.79
2023-05-03T20:20:08.456Z,15.79
2023-05-03T20:22:12.326Z,15.80
2023-05-03T20:24:15.422Z,15.80
2023-05-03T20:26:19.830Z,15.81
2023-05-03T20:28:23.187Z,15.80
2023-05-03T20:30:26.439Z,15.80
2023-05-03T20:32:29.578Z,15.80
2023-05-03T20:34:33.387Z,15.77
2023-05-03T20:36:36.470Z,15.73
2023-05-03T20:38:39.644Z,15.70
2023-05-03T20:40:42.979Z,15.68
2023-05-03T20:42:47.385Z,15.67
2023-05-03T20:44:52.130Z,15.60
2023-05-03T20:46:55.362Z,15.57
2023-05-03T20:48:58.736Z,15.55
2023-05-03T20:51:01.853Z,15.53
2023-05-03T20:53:05.111Z,15.46
2023-05-03T20:55:08.889Z,15.41
2023-05-03T20:57:13.645Z,15.36
2023-05-03T20:59:18.094Z,15.34
2023-05-03T21:01:22.763Z,15.29
2023-05-03T21:03:26.224Z,15.25
2023-05-03T21:05:29.988Z,15.23
2023-05-03T21:07:33.024Z,15.20
2023-05-03T21:09:36.189Z,15.18
2023-05-03T21:11:48.254Z,15.13
2023-05-03T21:13:51.336Z,15.13
2023-05-03T21:15:56.108Z,15.10
2023-05-03T21:17:59.197Z,15.07
2023-05-03T21:20:02.426Z,15.00
2023-05-03T21:22:05.707Z,14.97
2023-05-03T21:24:09.384Z,14.93
2023-05-03T21:26:12.509Z,14.87
2023-05-03T21:28:15.579Z,14.85
2023-05-03T21:30:20.459Z,14.83
2023-05-03T21:32:25.180Z,14.83
2023-05-03T21:34:28.269Z,14.78
2023-05-03T21:36:32.148Z,14.75
2023-05-03T21:38:35.329Z,14.74
2023-05-03T21:40:38.417Z,14.77
2023-05-03T21:42:41.579Z,14.76
2023-05-03T21:44:48.855Z,14.73
2023-05-03T21:46:52.261Z,14.76
2023-05-03T21:48:56.713Z,14.75
2023-05-03T21:50:59.712Z,14.75
2023-05-03T21:53:02.831Z,14.73
2023-05-03T21:55:06.856Z,14.70
2023-05-03T21:57:09.875Z,14.68
2023-05-03T21:59:12.981Z,14.68
2023-05-03T22:01:17.234Z,14.68
2023-05-03T22:03:20.503Z,14.67
2023-05-03T22:05:25.319Z,14.65
2023-05-03T22:07:28.358Z,14.63
2023-05-03T22:09:31.514Z,14.63
2023-05-03T22:11:34.568Z,14.59
2023-05-03T22:13:50.362Z,14.54
2023-05-03T22:15:57.983Z,14.58
2023-05-03T22:18:01.236Z,14.52
2023-05-03T22:20:05.997Z,14.45
2023-05-03T22:22:10.669Z,14.35
2023-05-03T22:24:13.850Z,14.34
2023-05-03T22:26:16.989Z,14.29
2023-05-03T22:28:20.584Z,14.27
2023-05-03T22:30:23.696Z,14.22
2023-05-03T22:32:26.755Z,14.22
2023-05-03T22:34:29.948Z,14.21
2023-05-03T22:36:33.260Z,14.21
2023-05-03T22:38:37.789Z,14.20
2023-05-03T22:40:40.993Z,14.20
2023-05-03T22:42:44.120Z,14.21
2023-05-03T22:44:47.226Z,14.20
2023-05-03T22:46:50.481Z,14.21
2023-05-03T22:48:53.502Z,14.19
2023-05-03T22:50:56.577Z,14.15
2023-05-03T22:52:59.559Z,14.11
2023-05-03T22:55:04.154Z,14.03
2023-05-03T22:57:07.848Z,14.00
2023-05-03T22:59:11.887Z,13.99
2023-05-03T23:01:15.569Z,13.94
2023-05-03T23:03:18.808Z,13.86
2023-05-03T23:05:22.197Z,13.88
2023-05-03T23:07:25.307Z,13.90
2023-05-03T23:09:28.855Z,13.90
2023-05-03T23:11:33.523Z,13.91
2023-05-03T23:13:36.897Z,13.96
2023-05-03T23:15:40.090Z,13.95
2023-05-03T23:17:43.228Z,14.00
2023-05-03T23:19:46.707Z,13.96
2023-05-03T23:21:49.958Z,13.93
2023-05-03T23:23:53.029Z,13.92
2023-05-03T23:25:56.799Z,13.89
2023-05-03T23:28:01.947Z,13.90
2023-05-03T23:30:06.228Z,13.92
2023-05-03T23:32:09.864Z,13.93
2023-05-03T23:34:13.630Z,13.94
2023-05-03T23:36:17.020Z,13.94
2023-05-03T23:38:20.129Z,13.95
2023-05-03T23:40:23.363Z,13.91
2023-05-03T23:42:26.462Z,13.93
2023-05-03T23:44:46.366Z,13.86
2023-05-03T23:46:49.830Z,13.76
2023-05-03T23:48:52.933Z,13.73
2023-05-03T23:50:55.970Z,13.70
2023-05-03T23:52:59.617Z,13.73
2023-05-03T23:55:02.740Z,13.74
2023-05-03T23:57:05.791Z,13.75
2023-05-03T23:59:09.128Z,13.76
